Time;durP1;ratioP1;P1;durP2;ratioP2;P2;SDS_P1;SDS_P2;PMS_P1;PMS_P2;Temp;Humidity;BMP_temperature;BMP_pressure;BME280_temperature;BME280_humidity;BME280_pressure;Samples;Min_cycle;Max_cycle;Signal;HPM_P1;HPM_P2
2022/12/03 00:00:12;;;;;;;8.75;4.25;;;;;;;-6.73;100.00;102154.16;1643218;86;21093;-65
2022/12/03 00:02:41;;;;;;;10.55;4.35;;;;;;;-6.73;100.00;102148.25;1610292;88;21129;-64
2022/12/03 00:05:09;;;;;;;10.63;4.22;;;;;;;-6.72;100.00;102168.94;1619895;87;21032;-64
2022/12/03 00:07:36;;;;;;;10.40;5.62;;;;;;;-6.69;100.00;102171.42;1641525;87;21101;-64
2022/12/03 00:10:05;;;;;;;11.03;5.30;;;;;;;-6.70;100.00;102156.64;1633993;87;22184;-65
2022/12/03 00:12:32;;;;;;;11.12;4.72;;;;;;;-6.65;100.00;102143.44;1652533;86;21639;-64
2022/12/03 00:15:01;;;;;;;14.13;5.17;;;;;;;-6.65;100.00;102147.24;1654274;86;21533;-65
2022/12/03 00:17:29;;;;;;;12.35;4.78;;;;;;;-6.63;100.00;102143.41;1641198;85;21330;-63
2022/12/03 00:19:56;;;;;;;12.23;5.22;;;;;;;-6.63;100.00;102143.41;1645780;86;21110;-64
2022/12/03 00:22:23;;;;;;;12.05;4.62;;;;;;;-6.62;100.00;102139.59;1645075;86;21088;-64
2022/12/03 00:24:51;;;;;;;11.22;4.37;;;;;;;-6.59;100.00;102143.78;1640379;86;21030;-64
2022/12/03 00:27:19;;;;;;;12.78;4.80;;;;;;;-6.56;100.00;102156.82;1638773;87;21538;-64
2022/12/03 00:29:46;;;;;;;10.88;4.60;;;;;;;-6.54;100.00;102149.60;1640512;85;21048;-65
2022/12/03 00:32:14;;;;;;;10.43;3.85;;;;;;;-6.50;100.00;102161.36;1616555;87;21106;-64
2022/12/03 00:34:41;;;;;;;10.50;4.47;;;;;;;-6.46;100.00;102155.37;1640481;87;21134;-64
2022/12/03 00:37:09;;;;;;;10.00;4.12;;;;;;;-6.44;100.00;102152.39;1617812;87;21094;-64
2022/12/03 00:39:36;;;;;;;9.38;4.42;;;;;;;-6.41;100.00;102144.70;1644441;86;21047;-63
2022/12/03 00:42:05;;;;;;;12.68;4.42;;;;;;;-6.37;100.00;102178.46;1642036;85;21062;-64
2022/12/03 00:44:32;;;;;;;10.72;4.40;;;;;;;-6.35;100.00;102153.91;1640538;86;21569;-65
2022/12/03 00:46:59;;;;;;;8.23;3.92;;;;;;;-6.34;100.00;102151.77;1640312;85;21097;-64
2022/12/03 00:49:26;;;;;;;11.83;3.77;;;;;;;-6.33;100.00;102153.44;1640695;87;21031;-64
2022/12/03 00:51:54;;;;;;;9.20;3.65;;;;;;;-6.30;100.00;102153.38;1641630;86;21003;-65
2022/12/03 00:54:21;;;;;;;10.63;4.50;;;;;;;-6.29;100.00;102148.70;1638539;85;22406;-64
2022/12/03 00:56:48;;;;;;;9.20;4.87;;;;;;;-6.29;100.00;102146.17;1651627;85;21023;-66
2022/12/03 00:59:16;;;;;;;7.33;3.55;;;;;;;-6.28;100.00;102138.98;1642838;85;21224;-65
2022/12/03 01:01:43;;;;;;;11.85;4.03;;;;;;;-6.26;100.00;102149.09;1659117;85;21002;-64
2022/12/03 01:04:11;;;;;;;7.47;3.80;;;;;;;-6.25;100.00;102143.14;1669030;85;21034;-64
2022/12/03 01:06:40;;;;;;;9.90;4.25;;;;;;;-6.24;100.00;102141.86;1650142;86;22399;-66
2022/12/03 01:09:07;;;;;;;7.78;3.50;;;;;;;-6.22;100.00;102158.31;1635666;86;21037;-65
2022/12/03 01:11:40;;;;;;;10.75;4.03;;;;;;;-6.20;100.00;102156.59;1620574;87;21631;-64
2022/12/03 01:14:11;;;;;;;7.75;3.87;;;;;;;-6.18;100.00;102149.77;1647100;86;20971;-65
2022/12/03 01:16:38;;;;;;;8.23;4.10;;;;;;;-6.14;100.00;102170.42;1638201;87;21053;-65
2022/12/03 01:19:05;;;;;;;8.23;3.75;;;;;;;-6.13;100.00;102156.45;1638124;86;21082;-63
2022/12/03 01:21:34;;;;;;;8.58;4.25;;;;;;;-6.12;100.00;102150.50;1639577;86;21049;-63
2022/12/03 01:24:02;;;;;;;9.98;3.95;;;;;;;-6.09;100.00;102153.86;1643788;87;22707;-65
2022/12/03 01:26:29;;;;;;;10.58;3.85;;;;;;;-6.09;100.00;102158.94;1689433;84;21096;-64
2022/12/03 01:28:57;;;;;;;8.35;3.45;;;;;;;-6.09;100.00;102157.67;1689088;84;21402;-63
2022/12/03 01:34:11;;;;;;;7.90;3.17;;;;;;;-6.10;100.00;102159.78;1689603;84;21578;-64
2022/12/03 01:36:39;;;;;;;7.30;2.75;;;;;;;-6.09;100.00;102143.70;1690001;84;21519;-66
2022/12/03 01:39:08;;;;;;;6.00;2.35;;;;;;;-6.09;100.00;102145.81;1689885;84;21074;-66
2022/12/03 01:41:35;;;;;;;7.10;3.12;;;;;;;-6.10;100.00;102153.44;1689308;84;20891;-63
2022/12/03 01:44:04;;;;;;;5.75;2.75;;;;;;;-6.11;100.00;102156.41;1689933;84;21041;-66
2022/12/03 01:46:36;;;;;;;6.42;2.52;;;;;;;-6.10;100.00;102161.88;1683120;84;21025;-64
2022/12/03 01:49:04;;;;;;;5.75;2.70;;;;;;;-6.10;100.00;102143.28;1638297;86;21968;-63
2022/12/03 01:51:33;;;;;;;8.73;4.47;;;;;;;-6.07;100.00;102158.45;1614488;87;20943;-63
2022/12/03 01:54:01;;;;;;;8.45;3.72;;;;;;;-6.07;100.00;102164.81;1637614;86;21066;-64
2022/12/03 01:56:29;;;;;;;9.95;4.00;;;;;;;-6.07;100.00;102164.81;1637716;87;21026;-64
2022/12/03 01:58:57;;;;;;;6.53;3.58;;;;;;;-6.06;100.00;102148.70;1638168;87;21199;-63
2022/12/03 02:01:25;;;;;;;6.80;2.87;;;;;;;-6.06;100.00;102153.78;1638526;87;21181;-63
2022/12/03 02:03:52;;;;;;;6.40;3.02;;;;;;;-6.07;100.00;102165.64;1611389;88;21090;-64
2022/12/03 02:06:20;;;;;;;6.62;3.02;;;;;;;-6.03;100.00;102152.45;1649140;86;20955;-65
2022/12/03 02:08:48;;;;;;;6.53;2.47;;;;;;;-6.02;100.00;102152.85;1648982;86;21134;-64
2022/12/03 02:11:24;;;;;;;5.00;2.25;;;;;;;-6.01;100.00;102145.22;1649355;86;21146;-63
2022/12/03 02:13:54;;;;;;;7.33;3.33;;;;;;;-6.00;100.00;102195.13;1649598;86;21242;-63
2022/12/03 02:16:23;;;;;;;7.12;2.60;;;;;;;-5.98;100.00;102160.41;1648988;86;21002;-64
2022/12/03 02:18:51;;;;;;;6.50;2.75;;;;;;;-5.95;100.00;102170.91;1649072;86;21101;-63
2022/12/03 02:21:45;;;;;;;6.22;2.60;;;;;;;-5.94;100.00;102170.89;1650462;86;20992;-63
2022/12/03 02:24:27;;;;;;;5.42;2.00;;;;;;;-5.91;100.00;102172.08;1611602;88;21577;-66
2022/12/03 02:26:54;;;;;;;7.28;2.85;;;;;;;-5.87;100.00;102184.28;1649377;86;21152;-64
2022/12/03 02:29:24;;;;;;;5.87;2.40;;;;;;;-5.84;100.00;102188.01;1641825;87;21655;-64
2022/12/03 02:31:52;;;;;;;5.72;2.47;;;;;;;-5.83;100.00;102181.22;1648744;86;21080;-66
2022/12/03 02:34:42;;;;;;;6.45;2.37;;;;;;;-5.80;100.00;102206.13;1641655;87;21158;-64
2022/12/03 02:37:22;;;;;;;5.03;2.22;;;;;;;-5.78;100.00;102189.16;1649563;86;20952;-63
2022/12/03 02:39:53;;;;;;;6.03;2.52;;;;;;;-5.74;100.00;102195.86;1660604;86;21709;-63
2022/12/03 02:42:36;;;;;;;5.55;1.87;;;;;;;-5.69;100.00;102210.56;1660606;86;20944;-63
2022/12/03 02:45:12;;;;;;;4.87;2.47;;;;;;;-5.68;100.00;102219.87;1659895;86;20924;-65
2022/12/03 02:47:56;;;;;;;4.33;1.90;;;;;;;-5.64;100.00;102228.27;1660733;86;21611;-63
2022/12/03 02:50:27;;;;;;;4.15;2.12;;;;;;;-5.61;100.00;102201.52;1660564;86;21080;-63
2022/12/03 02:52:55;;;;;;;5.15;1.95;;;;;;;-5.57;100.00;102242.94;1659967;86;22505;-64
2022/12/03 02:55:22;;;;;;;5.87;2.42;;;;;;;-5.54;100.00;102209.85;1657888;86;21138;-64
2022/12/03 02:57:50;;;;;;;6.60;2.55;;;;;;;-5.52;100.00;102231.00;1642237;87;20920;-64
2022/12/03 03:00:18;;;;;;;6.60;2.55;;;;;;;-5.51;100.00;102195.81;1642098;87;21030;-64
2022/12/03 03:02:49;;;;;;;5.40;2.62;;;;;;;-5.48;100.00;102218.63;1641145;87;21067;-65
2022/12/03 03:05:17;;;;;;;5.28;2.02;;;;;;;-5.47;100.00;102218.59;1649568;86;22153;-64
2022/12/03 03:07:45;;;;;;;6.25;2.65;;;;;;;-5.43;100.00;102248.59;1660460;86;21020;-64
2022/12/03 03:10:15;;;;;;;6.58;3.30;;;;;;;-5.40;100.00;102225.22;1660336;86;21054;-66
2022/12/03 03:12:42;;;;;;;7.30;2.30;;;;;;;-5.36;100.00;102227.27;1660044;86;21042;-66
2022/12/03 03:15:10;;;;;;;4.78;1.87;;;;;;;-5.29;100.00;102222.89;1660399;86;21164;-64
2022/12/03 03:17:38;;;;;;;10.00;2.80;;;;;;;-5.27;100.00;102232.14;1660500;86;21283;-63
2022/12/03 03:20:08;;;;;;;6.17;2.60;;;;;;;-5.22;100.00;102229.52;1666697;85;20986;-64
2022/12/03 03:22:38;;;;;;;5.62;2.25;;;;;;;-5.19;100.00;102222.66;1674247;85;21477;-63
2022/12/03 03:25:08;;;;;;;5.47;2.77;;;;;;;-5.15;100.00;102223.44;1685866;85;21066;-64
2022/12/03 03:27:36;;;;;;;6.40;2.05;;;;;;;-5.15;100.00;102223.44;1669799;85;20976;-63
2022/12/03 03:30:05;;;;;;;7.40;2.77;;;;;;;-5.10;100.00;102229.69;1662844;86;22329;-63
2022/12/03 03:32:32;;;;;;;6.17;2.02;;;;;;;-5.09;100.00;102235.16;1644902;86;21709;-63
2022/12/03 03:35:00;;;;;;;5.17;2.10;;;;;;;-5.08;100.00;102226.22;1633869;86;21042;-63
2022/12/03 03:37:28;;;;;;;6.62;2.98;;;;;;;-5.04;100.00;102244.78;1660339;86;21086;-63
2022/12/03 03:39:55;;;;;;;5.75;2.05;;;;;;;-5.01;100.00;102238.37;1660511;86;20951;-62
2022/12/03 03:42:22;;;;;;;8.98;2.87;;;;;;;-4.99;100.00;102246.38;1660914;86;21716;-64
2022/12/03 03:44:49;;;;;;;6.37;2.50;;;;;;;-4.96;100.00;102236.58;1659871;86;20931;-63
2022/12/03 03:47:18;;;;;;;4.62;2.27;;;;;;;-4.94;100.00;102248.36;1660178;86;21461;-62
2022/12/03 03:49:48;;;;;;;7.37;3.05;;;;;;;-4.92;100.00;102243.27;1660486;86;21494;-62
2022/12/03 03:52:15;;;;;;;6.33;2.60;;;;;;;-4.92;100.00;102236.91;1660542;86;21133;-62
2022/12/03 03:54:42;;;;;;;4.92;2.47;;;;;;;-4.93;100.00;102246.22;1659874;86;22317;-62
2022/12/03 03:57:11;;;;;;;6.22;2.27;;;;;;;-4.93;100.00;102247.48;1659923;86;21532;-63
2022/12/03 03:59:38;;;;;;;5.28;2.10;;;;;;;-4.92;100.00;102236.91;1660560;86;21154;-62
2022/12/03 04:02:05;;;;;;;4.90;2.17;;;;;;;-4.91;100.00;102236.02;1660495;86;21023;-65
2022/12/03 04:04:36;;;;;;;6.15;2.40;;;;;;;-4.90;100.00;102245.31;1662669;85;21058;-63
2022/12/03 04:07:03;;;;;;;5.53;2.77;;;;;;;-4.89;100.00;102238.08;1673057;85;21822;-64
2022/12/03 04:09:30;;;;;;;5.40;2.40;;;;;;;-4.90;100.00;102248.70;1672888;85;20864;-63
2022/12/03 04:14:44;;;;;;;7.47;1.77;;;;;;;-4.90;100.00;102242.33;1644681;87;21276;-65
2022/12/03 04:17:11;;;;;;;5.37;2.55;;;;;;;-4.90;100.00;102244.88;1645241;87;21060;-62
2022/12/03 04:19:40;;;;;;;3.83;1.75;;;;;;;-4.88;100.00;102264.37;1617376;88;21113;-62
2022/12/03 04:28:47;;;;;;;6.30;2.83;;;;;;;-4.87;100.00;102278.32;1645400;87;21042;-63
2022/12/03 04:30:08;;;;;;;6.17;2.47;;;;;;;-4.86;100.00;102275.34;1644380;87;20987;-65
2022/12/03 04:38:10;;;;;;;5.08;2.50;;;;;;;-4.82;100.00;102276.50;1645173;87;21072;-63
2022/12/03 04:43:23;;;;;;;6.42;2.65;;;;;;;-4.78;100.00;102292.09;1644377;87;21001;-64
2022/12/03 04:45:50;;;;;;;8.35;3.05;;;;;;;-4.76;100.00;102289.53;1645031;87;21182;-63
2022/12/03 04:48:18;;;;;;;7.20;2.90;;;;;;;-4.75;100.00;102301.37;1645054;87;20919;-60
2022/12/03 04:50:47;;;;;;;5.95;2.90;;;;;;;-4.74;100.00;102314.05;1645267;87;21488;-64
2022/12/03 04:53:14;;;;;;;4.67;2.27;;;;;;;-4.72;100.00;102304.69;1644573;87;21107;-63
2022/12/03 04:55:43;;;;;;;5.08;2.67;;;;;;;-4.71;100.00;102292.36;1652372;85;22422;-63
2022/12/03 04:58:10;;;;;;;6.12;2.62;;;;;;;-4.69;100.00;102297.43;1672978;85;21246;-63
2022/12/03 05:00:39;;;;;;;7.15;3.45;;;;;;;-4.68;100.00;102304.19;1672835;85;21172;-62
2022/12/03 05:03:07;;;;;;;6.70;3.10;;;;;;;-4.68;100.00;102311.37;1699040;84;20986;-65
2022/12/03 05:05:35;;;;;;;6.47;2.95;;;;;;;-4.68;100.00;102308.84;1701837;84;21014;-65
2022/12/03 05:08:02;;;;;;;5.30;2.90;;;;;;;-4.67;100.00;102313.48;1677309;85;21097;-63
2022/12/03 05:10:30;;;;;;;5.20;2.62;;;;;;;-4.66;100.00;102296.93;1677362;85;21154;-63
2022/12/03 05:12:58;;;;;;;8.48;3.33;;;;;;;-4.65;100.00;102322.77;1676885;85;20849;-66
2022/12/03 05:15:26;;;;;;;5.50;2.92;;;;;;;-4.65;100.00;102321.50;1676404;85;22225;-64
2022/12/03 05:17:53;;;;;;;7.22;2.92;;;;;;;-4.63;100.00;102320.62;1677077;85;21000;-63
2022/12/03 05:20:41;;;;;;;7.17;3.45;;;;;;;-4.63;100.00;102323.16;1677518;85;20920;-63
2022/12/03 05:22:50;;;;;;;6.35;3.45;;;;;;;-4.63;100.00;102317.63;1670001;85;21316;-66
2022/12/03 05:25:17;;;;;;;9.78;3.20;;;;;;;-4.60;100.00;102326.47;1676872;85;20963;-63
2022/12/03 05:27:46;;;;;;;6.58;2.58;;;;;;;-4.59;100.00;102327.30;1676680;85;21009;-64
2022/12/03 05:30:14;;;;;;;7.33;3.47;;;;;;;-4.59;100.00;102328.58;1677457;85;21050;-62
2022/12/03 05:32:41;;;;;;;6.25;3.15;;;;;;;-4.56;100.00;102337.42;1677574;85;20919;-63
2022/12/03 05:35:09;;;;;;;7.90;3.40;;;;;;;-4.53;100.00;102339.91;1666644;85;21320;-64
2022/12/03 05:37:37;;;;;;;7.25;3.30;;;;;;;-4.52;100.00;102319.50;1649644;86;21033;-65
2022/12/03 05:40:06;;;;;;;6.70;3.58;;;;;;;-4.50;100.00;102332.20;1658970;85;21021;-63
2022/12/03 05:45:23;;;;;;;10.78;3.98;;;;;;;-4.48;100.00;102343.17;1677793;85;20976;-63
2022/12/03 05:47:51;;;;;;;8.70;3.83;;;;;;;-4.48;100.00;102324.08;1677599;85;22274;-64
2022/12/03 05:50:20;;;;;;;7.42;3.30;;;;;;;-4.46;100.00;102343.98;1677503;85;21101;-64
2022/12/03 05:52:47;;;;;;;7.67;3.22;;;;;;;-4.49;100.00;102350.41;1677274;85;21016;-65
2022/12/03 05:55:14;;;;;;;6.28;3.47;;;;;;;-4.50;100.00;102352.13;1677289;85;21513;-63
2022/12/03 05:57:41;;;;;;;7.22;3.10;;;;;;;-4.52;100.00;102351.75;1677159;85;21513;-63
2022/12/03 06:00:18;;;;;;;5.95;2.80;;;;;;;-4.53;100.00;102357.72;1681310;84;21298;-62
2022/12/03 06:02:45;;;;;;;6.60;2.75;;;;;;;-4.53;100.00;102348.81;1675543;85;21007;-64
2022/12/03 06:05:14;;;;;;;6.35;3.00;;;;;;;-4.52;100.00;102353.02;1677020;85;20971;-64
2022/12/03 06:07:41;;;;;;;7.72;3.17;;;;;;;-4.53;100.00;102358.55;1674273;85;20987;-64
2022/12/03 06:10:11;;;;;;;7.22;3.47;;;;;;;-4.52;100.00;102358.11;1674690;85;20991;-64
2022/12/03 06:12:38;;;;;;;6.62;3.33;;;;;;;-4.52;100.00;102360.22;1643710;87;21889;-65
2022/12/03 06:15:07;;;;;;;7.22;3.47;;;;;;;-4.53;100.00;102371.28;1656619;86;22219;-64
2022/12/03 06:17:35;;;;;;;6.00;3.12;;;;;;;-4.51;100.00;102369.95;1662374;86;21040;-64
2022/12/03 06:20:04;;;;;;;7.05;3.00;;;;;;;-4.48;100.00;102376.26;1662641;86;21071;-64
2022/12/03 06:22:31;;;;;;;7.00;3.75;;;;;;;-4.46;100.00;102389.36;1663093;86;21008;-64
2022/12/03 06:24:58;;;;;;;9.00;3.45;;;;;;;-4.40;100.00;102364.19;1662275;86;21687;-63
2022/12/03 06:27:27;;;;;;;6.58;3.45;;;;;;;-4.35;100.00;102376.40;1662652;86;21027;-65
2022/12/03 06:29:54;;;;;;;5.62;3.05;;;;;;;-4.31;100.00;102387.35;1662811;86;21047;-64
2022/12/03 06:32:23;;;;;;;7.87;3.87;;;;;;;-4.26;100.00;102400.80;1649998;85;21047;-66
2022/12/03 06:34:50;;;;;;;7.30;3.67;;;;;;;-4.28;100.00;102388.12;1632407;87;21040;-66
2022/12/03 06:37:19;;;;;;;7.25;3.75;;;;;;;-4.26;100.00;102382.98;1646903;87;21194;-66
2022/12/03 06:39:46;;;;;;;9.40;4.40;;;;;;;-4.22;100.00;102390.95;1654774;85;21042;-66
2022/12/03 06:42:14;;;;;;;8.55;3.22;;;;;;;-4.23;100.00;102396.48;1614434;88;21145;-65
2022/12/03 06:44:41;;;;;;;8.10;3.70;;;;;;;-4.24;100.00;102391.00;1614368;88;22149;-67
2022/12/03 06:47:10;;;;;;;5.35;2.55;;;;;;;-4.28;100.00;102389.39;1619342;87;21422;-66
2022/12/03 06:49:37;;;;;;;6.83;3.40;;;;;;;-4.32;100.00;102399.22;1644068;87;21349;-67
2022/12/03 06:52:05;;;;;;;7.62;3.25;;;;;;;-4.35;100.00;102398.48;1643665;87;21061;-64
2022/12/03 06:54:33;;;;;;;6.90;3.45;;;;;;;-4.36;100.00;102402.71;1643904;87;21586;-67
2022/12/03 06:57:00;;;;;;;12.18;3.55;;;;;;;-4.36;100.00;102398.89;1643969;87;21006;-66
2022/12/03 06:59:27;;;;;;;6.17;3.05;;;;;;;-4.33;100.00;102423.45;1644058;87;21102;-66
2022/12/03 07:01:54;;;;;;;7.65;3.42;;;;;;;-4.34;100.00;102392.51;1645129;85;21301;-68
2022/12/03 07:04:22;;;;;;;6.20;3.30;;;;;;;-4.36;100.00;102408.24;1644914;85;21585;-66
2022/12/03 07:06:49;;;;;;;5.85;2.83;;;;;;;-4.39;100.00;102405.34;1604230;87;21624;-67
2022/12/03 07:09:17;;;;;;;6.42;2.83;;;;;;;-4.35;100.00;102422.66;1639488;86;21116;-64
2022/12/03 07:11:45;;;;;;;5.72;2.22;;;;;;;-4.39;100.00;102400.26;1632041;87;21107;-64
2022/12/03 07:14:14;;;;;;;6.37;3.20;;;;;;;-4.45;100.00;102413.11;1635253;87;21352;-65
2022/12/03 07:16:42;;;;;;;6.55;3.45;;;;;;;-4.51;100.00;102415.36;1637327;86;21118;-64
2022/12/03 07:19:09;;;;;;;7.80;3.60;;;;;;;-4.53;100.00;102420.08;1636958;87;21134;-63
2022/12/03 07:21:37;;;;;;;5.75;3.30;;;;;;;-4.54;100.00;102427.31;1629168;87;21521;-64
2022/12/03 07:24:05;;;;;;;10.05;3.20;;;;;;;-4.53;100.00;102400.98;1606982;89;21094;-65
2022/12/03 07:26:32;;;;;;;7.58;3.00;;;;;;;-4.52;100.00;102418.76;1606550;89;21149;-65
2022/12/03 07:29:00;;;;;;;7.28;3.30;;;;;;;-4.50;100.00;102417.03;1630592;86;21525;-64
2022/12/03 07:31:27;;;;;;;7.67;3.62;;;;;;;-4.50;100.00;102427.21;1638470;86;21595;-65
2022/12/03 07:33:56;;;;;;;7.75;2.92;;;;;;;-4.49;100.00;102445.42;1638225;86;20990;-64
2022/12/03 07:36:23;;;;;;;7.42;3.67;;;;;;;-4.50;100.00;102436.56;1637849;87;20975;-62
2022/12/03 07:38:51;;;;;;;7.78;3.90;;;;;;;-4.54;100.00;102457.86;1638353;86;21575;-65
2022/12/03 07:41:18;;;;;;;8.33;4.05;;;;;;;-4.60;100.00;102440.16;1637734;86;21008;-64
2022/12/03 07:43:45;;;;;;;13.28;5.90;;;;;;;-4.65;100.00;102415.64;1638195;86;21075;-64
2022/12/03 07:46:12;;;;;;;9.83;5.35;;;;;;;-4.65;100.00;102450.44;1638495;86;21035;-67
2022/12/03 07:48:41;;;;;;;12.63;5.92;;;;;;;-4.69;100.00;102445.84;1638395;86;21617;-63
2022/12/03 07:51:08;;;;;;;15.55;7.28;;;;;;;-4.68;100.00;102427.59;1637873;87;21264;-66
2022/12/03 07:53:36;;;;;;;10.18;5.53;;;;;;;-4.68;100.00;102423.78;1638490;87;20982;-63
2022/12/03 07:56:04;;;;;;;10.68;5.72;;;;;;;-4.68;100.00;102437.34;1638225;87;20978;-64
2022/12/03 07:58:33;;;;;;;6.78;3.15;;;;;;;-4.69;100.00;102439.48;1637843;87;21000;-64
2022/12/03 08:01:00;;;;;;;9.35;4.35;;;;;;;-4.72;100.00;102447.17;1637979;87;21085;-64
2022/12/03 08:03:29;;;;;;;7.62;3.92;;;;;;;-4.77;100.00;102448.98;1638624;87;21758;-64
2022/12/03 08:05:56;;;;;;;5.80;3.35;;;;;;;-4.82;100.00;102435.94;1636441;87;21042;-64
2022/12/03 08:08:25;;;;;;;7.65;3.20;;;;;;;-4.85;100.00;102429.63;1602863;89;21186;-65
2022/12/03 08:10:53;;;;;;;7.47;4.45;;;;;;;-4.86;100.00;102450.86;1616029;87;21601;-65
2022/12/03 08:13:20;;;;;;;9.45;4.85;;;;;;;-4.88;100.00;102461.08;1617067;88;21626;-64
2022/12/03 08:15:47;;;;;;;12.00;5.35;;;;;;;-4.93;100.00;102461.58;1617238;87;21332;-64
2022/12/03 08:18:20;;;;;;;9.93;4.62;;;;;;;-4.94;100.00;102467.54;1619865;87;21550;-65
2022/12/03 08:20:48;;;;;;;5.58;2.90;;;;;;;-4.97;100.00;102467.16;1643163;87;21102;-66
2022/12/03 08:23:23;;;;;;;7.25;3.80;;;;;;;-5.01;100.00;102462.16;1644124;87;21077;-62
2022/12/03 08:25:51;;;;;;;6.00;3.15;;;;;;;-5.09;100.00;102459.76;1648341;86;20857;-64
2022/12/03 08:28:23;;;;;;;6.53;2.83;;;;;;;-5.12;100.00;102458.98;1647944;86;21078;-66
2022/12/03 08:31:03;;;;;;;7.50;3.67;;;;;;;-5.15;100.00;102458.19;1624154;86;20918;-63
2022/12/03 08:33:35;;;;;;;8.03;2.90;;;;;;;-5.18;100.00;102456.96;1591243;89;20924;-66
2022/12/03 08:36:21;;;;;;;7.30;3.67;;;;;;;-5.15;100.00;102469.63;1618979;88;21062;-65
2022/12/03 08:38:54;;;;;;;23.73;16.57;;;;;;;-5.14;100.00;102456.04;1618731;88;21057;-64
2022/12/03 08:44:27;;;;;;;263.95;162.03;;;;;;;-5.23;100.00;102458.76;1618553;87;21580;-64
2022/12/03 08:47:16;;;;;;;78.72;41.92;;;;;;;-5.21;100.00;102460.83;1603296;89;21084;-63
2022/12/03 08:49:48;;;;;;;12.78;8.30;;;;;;;-5.15;100.00;102453.09;1618416;88;21134;-63
2022/12/03 08:52:18;;;;;;;6.55;3.95;;;;;;;-5.09;100.00;102453.84;1618136;88;21052;-63
2022/12/03 08:54:50;;;;;;;6.60;3.37;;;;;;;-5.11;100.00;102469.55;1605402;89;21181;-67
2022/12/03 08:57:27;;;;;;;38.35;15.45;;;;;;;-5.12;100.00;102466.17;1631109;87;21122;-63
2022/12/03 09:00:18;;;;;;;553.05;257.10;;;;;;;-5.10;100.00;102450.91;1619098;88;21556;-65
2022/12/03 09:02:50;;;;;;;24.07;12.53;;;;;;;-5.06;100.00;102459.71;1619209;88;21646;-65
2022/12/03 09:05:29;;;;;;;7.28;3.65;;;;;;;-5.01;100.00;102468.52;1619045;88;21054;-63
2022/12/03 09:07:56;;;;;;;8.73;3.90;;;;;;;-4.98;100.00;102455.31;1611671;87;21939;-67
2022/12/03 09:10:23;;;;;;;7.78;4.25;;;;;;;-4.97;100.00;102465.88;1662002;86;20881;-64
2022/12/03 09:12:51;;;;;;;7.45;3.58;;;;;;;-4.91;100.00;102440.78;1662864;86;21074;-63
2022/12/03 09:15:18;;;;;;;8.15;3.87;;;;;;;-4.83;100.00;102446.55;1642608;85;20923;-64
2022/12/03 09:17:45;;;;;;;7.90;4.17;;;;;;;-4.82;100.00;102449.92;1654570;86;21090;-64
2022/12/03 09:20:12;;;;;;;7.75;3.33;;;;;;;-4.80;100.00;102469.83;1655843;86;21592;-67
2022/12/03 09:22:39;;;;;;;7.65;3.70;;;;;;;-4.78;100.00;102457.90;1649288;86;20895;-63
2022/12/03 09:25:07;;;;;;;7.42;3.17;;;;;;;-4.83;100.00;102468.17;1641795;87;21105;-63
2022/12/03 09:27:35;;;;;;;6.33;3.47;;;;;;;-4.90;100.00;102461.09;1641709;87;21063;-64
2022/12/03 09:30:03;;;;;;;5.08;2.80;;;;;;;-4.94;100.00;102467.10;1641782;87;21055;-64
2022/12/03 09:32:30;;;;;;;6.97;2.95;;;;;;;-4.98;100.00;102460.84;1641405;87;21948;-68
2022/12/03 09:34:57;;;;;;;6.90;3.17;;;;;;;-5.01;100.00;102474.44;1647097;86;21454;-64
2022/12/03 09:37:24;;;;;;;7.28;3.70;;;;;;;-5.03;100.00;102460.93;1660507;86;21035;-64
2022/12/03 09:39:52;;;;;;;7.17;3.58;;;;;;;-5.00;100.00;102467.64;1672220;85;21268;-63
2022/12/03 09:42:19;;;;;;;9.58;4.20;;;;;;;-4.97;100.00;102469.70;1686069;85;21506;-67
2022/12/03 09:44:47;;;;;;;8.95;4.17;;;;;;;-4.94;100.00;102458.64;1673454;85;21185;-65
2022/12/03 09:47:14;;;;;;;9.40;4.20;;;;;;;-4.93;100.00;102467.94;1686253;85;22364;-64
2022/12/03 09:49:41;;;;;;;7.25;3.70;;;;;;;-4.88;100.00;102462.34;1674590;85;20912;-64
2022/12/03 09:52:13;;;;;;;6.83;3.80;;;;;;;-4.86;100.00;102455.50;1684306;85;21510;-65
2022/12/03 09:54:40;;;;;;;;;;;;;;;-4.83;100.00;102454.19;1643302;86;21062;-64
2022/12/03 09:57:11;;;;;;;6.83;3.25;;;;;;;-4.81;100.00;102461.36;1651820;86;21162;-64
2022/12/03 09:59:38;;;;;;;7.80;3.47;;;;;;;-4.76;100.00;102464.64;1660703;86;20978;-63
2022/12/03 10:02:23;;;;;;;9.40;3.30;;;;;;;-4.72;100.00;102460.34;1660220;86;21574;-67
2022/12/03 10:04:50;;;;;;;9.18;4.00;;;;;;;-4.73;100.00;102457.39;1659824;86;21070;-66
2022/12/03 10:07:17;;;;;;;9.10;3.85;;;;;;;-4.73;100.00;102456.95;1633745;85;21093;-65
2022/12/03 10:09:44;;;;;;;8.08;4.10;;;;;;;-4.66;100.00;102445.79;1699546;84;21889;-68
2022/12/03 10:12:13;;;;;;;7.65;3.08;;;;;;;-4.57;100.00;102454.94;1699391;84;21569;-68
2022/12/03 10:14:40;;;;;;;4.50;2.55;;;;;;;-4.55;100.00;102453.61;1698305;84;21434;-63
2022/12/03 10:17:10;;;;;;;7.42;3.25;;;;;;;-4.53;100.00;102484.98;1699561;84;21099;-63
2022/12/03 10:19:38;;;;;;;7.83;3.60;;;;;;;-4.50;100.00;102457.76;1699303;84;21501;-65
2022/12/03 10:22:05;;;;;;;10.28;3.98;;;;;;;-4.48;100.00;102453.89;1699444;84;22514;-65
2022/12/03 10:24:35;;;;;;;9.15;3.52;;;;;;;-4.43;100.00;102456.77;1699146;84;20951;-67
2022/12/03 10:27:24;;;;;;;7.28;3.20;;;;;;;-4.33;100.00;102444.66;1699651;84;20983;-63
2022/12/03 10:29:58;;;;;;;6.65;3.22;;;;;;;-4.20;100.00;102459.25;1668149;84;21335;-64
2022/12/03 10:32:46;;;;;;;5.35;2.75;;;;;;;-4.12;100.00;102457.36;1683214;84;21019;-64
2022/12/03 10:35:17;;;;;;;7.33;3.40;;;;;;;-4.12;100.00;102451.00;1702813;84;21938;-64
2022/12/03 10:38:00;;;;;;;12.25;5.58;;;;;;;-4.13;100.00;102444.64;1684890;84;21051;-67
2022/12/03 10:40:31;;;;;;;9.88;4.10;;;;;;;-4.18;100.00;102457.05;1699623;84;20988;-66
2022/12/03 10:43:20;;;;;;;6.92;3.77;;;;;;;-4.20;100.00;102444.80;1699340;84;20901;-66
2022/12/03 10:46:04;;;;;;;7.67;2.90;;;;;;;-4.17;100.00;102443.47;1673106;85;21168;-64
2022/12/03 10:48:32;;;;;;;5.97;3.15;;;;;;;-4.05;100.00;102447.85;1672378;85;21328;-66
2022/12/03 10:51:21;;;;;;;6.10;3.00;;;;;;;-3.94;100.00;102448.03;1699470;84;21370;-67
2022/12/03 10:53:48;;;;;;;6.70;2.80;;;;;;;-3.81;100.00;102443.47;1699427;84;20953;-64
2022/12/03 10:56:25;;;;;;;7.62;2.95;;;;;;;-3.70;100.00;102441.94;1699033;84;21040;-67
2022/12/03 10:58:52;;;;;;;5.90;2.90;;;;;;;-3.67;100.00;102445.25;1697113;84;21055;-67
2022/12/03 11:01:24;;;;;;;9.65;4.03;;;;;;;-3.64;100.00;102437.11;1681177;84;21302;-64
2022/12/03 11:03:53;;;;;;;6.90;3.50;;;;;;;-3.61;100.00;102447.24;1655603;85;20954;-64
2022/12/03 11:06:21;;;;;;;4.75;2.62;;;;;;;-3.59;100.00;102437.42;1650184;85;21427;-65
2022/12/03 11:08:53;;;;;;;6.65;2.55;;;;;;;-3.64;100.00;102432.02;1645575;86;21098;-68
2022/12/03 11:11:28;;;;;;;9.30;3.00;;;;;;;-3.79;100.00;102443.02;1645371;87;21077;-66
2022/12/03 11:13:58;;;;;;;6.25;3.08;;;;;;;-3.92;100.00;102444.16;1644541;87;21900;-67
2022/12/03 11:16:46;;;;;;;8.38;4.83;;;;;;;-3.99;100.00;102437.53;1645221;87;21332;-64
2022/12/03 11:19:37;;;;;;;9.30;5.75;;;;;;;-4.00;100.00;102458.35;1615173;87;21621;-66
2022/12/03 11:22:10;;;;;;;4.97;2.65;;;;;;;-4.02;100.00;102440.14;1687745;84;20882;-65
2022/12/03 11:24:38;;;;;;;6.92;3.67;;;;;;;-4.08;100.00;102450.05;1687416;84;20946;-65
2022/12/03 11:27:15;;;;;;;8.35;3.52;;;;;;;-4.10;100.00;102443.30;1687422;84;21889;-66
2022/12/03 11:29:49;;;;;;;8.30;4.05;;;;;;;-4.10;100.00;102450.95;1687481;84;21170;-65
2022/12/03 11:32:46;;;;;;;11.68;5.50;;;;;;;-4.10;100.00;102470.05;1687221;84;20992;-64
2022/12/03 11:35:26;;;;;;;10.25;4.42;;;;;;;-4.13;100.00;102453.56;1632513;87;21152;-65
2022/12/03 11:37:53;;;;;;;14.78;5.37;;;;;;;-4.11;100.00;102446.73;1602224;88;21586;-65
2022/12/03 11:40:25;;;;;;;7.72;3.45;;;;;;;-4.08;100.00;102460.68;1630751;87;22113;-65
2022/12/03 11:42:52;;;;;;;10.25;3.65;;;;;;;-4.02;100.00;102456.70;1644481;87;21169;-65
2022/12/03 11:45:32;;;;;;;6.30;2.77;;;;;;;-4.00;100.00;102443.06;1669245;84;21484;-67
2022/12/03 11:48:10;;;;;;;8.98;4.35;;;;;;;-3.98;100.00;102456.62;1698996;84;21481;-65
2022/12/03 11:50:42;;;;;;;9.73;5.45;;;;;;;-3.99;100.00;102454.92;1699179;84;21144;-64
2022/12/03 11:53:23;;;;;;;6.05;3.27;;;;;;;-3.96;100.00;102451.03;1671054;85;21452;-65